Time;durP1;ratioP1;P1;durP2;ratioP2;P2;SDS_P1;SDS_P2;PMS_P1;PMS_P2;Temp;Humidity;BMP_temperature;BMP_pressure;BME280_temperature;BME280_humidity;BME280_pressure;Samples;Min_cycle;Max_cycle;Signal;HPM_P1;HPM_P2
2023/01/10 00:00:09;;;;;;;4.72;2.30;;;;;;;7.25;48.11;100798.75;5008502;28;20532;-66
2023/01/10 00:02:37;;;;;;;5.05;2.30;;;;;;;7.23;48.41;100812.47;5009275;28;20045;-67
2023/01/10 00:05:06;;;;;;;4.47;2.10;;;;;;;7.23;48.32;100814.31;5008401;28;20050;-66
2023/01/10 00:07:33;;;;;;;5.07;2.60;;;;;;;7.23;48.07;100817.03;5008981;28;20173;-67
2023/01/10 00:10:01;;;;;;;3.65;2.05;;;;;;;7.22;48.40;100821.59;5008384;28;20049;-65
2023/01/10 00:15:16;;;;;;;5.93;2.40;;;;;;;7.20;48.17;100840.78;5023834;28;20077;-67
2023/01/10 00:17:44;;;;;;;5.43;2.17;;;;;;;7.19;48.26;100851.75;5008849;28;20056;-66
2023/01/10 00:20:12;;;;;;;5.05;2.22;;;;;;;7.20;48.37;100861.69;5006469;28;20046;-66
2023/01/10 00:22:40;;;;;;;5.18;2.40;;;;;;;7.18;48.49;100864.53;5008536;28;20034;-66
2023/01/10 00:25:08;;;;;;;4.95;2.03;;;;;;;7.18;48.11;100869.97;5008287;28;20054;-66
2023/01/10 00:27:36;;;;;;;4.35;2.15;;;;;;;7.18;48.08;100874.56;5009061;28;20038;-66
2023/01/10 00:30:12;;;;;;;6.05;2.50;;;;;;;7.19;48.15;100874.41;5006410;28;20056;-67
2023/01/10 00:32:43;;;;;;;4.80;2.40;;;;;;;7.18;48.55;100875.44;5009025;28;20507;-66
2023/01/10 00:35:12;;;;;;;6.05;2.63;;;;;;;7.18;48.49;100891.75;5006611;28;20064;-66
2023/01/10 00:37:40;;;;;;;6.20;2.40;;;;;;;7.18;48.20;100897.19;5008681;28;20039;-65
2023/01/10 00:40:11;;;;;;;5.82;2.22;;;;;;;7.19;48.25;100898.03;5006965;28;20564;-66
2023/01/10 00:45:25;;;;;;;4.65;2.10;;;;;;;7.17;48.46;100905.47;5007736;28;20462;-67
2023/01/10 00:47:55;;;;;;;4.68;2.17;;;;;;;7.18;48.23;100920.81;5009251;28;20429;-65
2023/01/10 00:50:22;;;;;;;4.25;1.95;;;;;;;7.16;48.23;100915.47;5007486;28;20359;-66
2023/01/10 00:52:50;;;;;;;5.47;2.10;;;;;;;7.17;48.25;100921.81;5008399;28;20038;-66
2023/01/10 00:55:18;;;;;;;5.10;1.92;;;;;;;7.16;47.99;100928.22;5007943;28;20447;-66
2023/01/10 00:57:46;;;;;;;5.28;1.80;;;;;;;7.16;47.87;100936.38;5008442;28;20049;-66
2023/01/10 01:00:14;;;;;;;4.40;2.13;;;;;;;7.15;48.09;100943.69;5007729;28;20702;-68
2023/01/10 01:02:42;;;;;;;4.20;1.90;;;;;;;7.15;47.76;100943.69;5008333;28;20034;-68
2023/01/10 01:05:11;;;;;;;4.18;1.90;;;;;;;7.15;47.94;100946.41;5006363;28;20255;-67
2023/01/10 01:07:39;;;;;;;4.38;1.70;;;;;;;7.15;48.24;100946.41;5008446;28;20042;-68
2023/01/10 01:10:26;;;;;;;3.70;2.05;;;;;;;7.14;48.09;100952.81;5007654;28;20129;-68
2023/01/10 01:12:56;;;;;;;5.25;2.15;;;;;;;7.13;47.97;100959.25;5010950;28;20052;-67
2023/01/10 01:15:25;;;;;;;4.85;2.05;;;;;;;7.14;48.25;100971.00;5011592;28;20057;-67
2023/01/10 01:17:53;;;;;;;4.35;1.98;;;;;;;7.13;48.19;100972.84;5011876;28;20042;-68
2023/01/10 01:20:22;;;;;;;5.93;2.03;;;;;;;7.14;47.97;100981.88;5009968;28;20109;-67
2023/01/10 01:22:50;;;;;;;5.45;2.15;;;;;;;7.12;48.13;100987.44;5012172;28;20093;-66
2023/01/10 01:25:18;;;;;;;5.68;2.00;;;;;;;7.12;48.21;100995.59;5011258;28;20080;-67
2023/01/10 01:27:46;;;;;;;3.92;1.80;;;;;;;7.14;48.15;100998.22;5010416;28;20053;-67
2023/01/10 01:30:17;;;;;;;5.18;1.92;;;;;;;7.15;48.61;100999.97;5011374;28;20054;-68
2023/01/10 01:32:45;;;;;;;4.53;1.75;;;;;;;7.15;47.94;101003.56;5012266;28;20041;-67
2023/01/10 01:35:15;;;;;;;5.30;1.80;;;;;;;7.16;48.26;101001.72;5010803;28;20045;-68
2023/01/10 01:37:44;;;;;;;6.07;1.98;;;;;;;7.17;48.31;101007.06;5011911;28;20435;-68
2023/01/10 01:40:13;;;;;;;5.70;1.77;;;;;;;7.17;48.42;101015.22;5010795;28;20050;-68
2023/01/10 01:42:42;;;;;;;5.55;1.92;;;;;;;7.17;48.05;101023.38;5012046;28;20121;-67
2023/01/10 01:45:34;;;;;;;3.70;1.58;;;;;;;7.17;48.30;101034.28;5010962;28;20045;-68
2023/01/10 01:48:09;;;;;;;3.78;1.58;;;;;;;7.18;48.13;101041.47;5012165;28;20379;-67
2023/01/10 01:50:41;;;;;;;5.50;1.70;;;;;;;7.19;48.08;101047.75;5010616;28;20050;-68
2023/01/10 01:53:14;;;;;;;4.85;1.60;;;;;;;7.18;48.35;101040.59;5011565;28;20464;-67
2023/01/10 01:55:44;;;;;;;4.07;1.90;;;;;;;7.18;48.27;101048.75;5010651;28;20141;-67
2023/01/10 01:58:18;;;;;;;5.25;1.92;;;;;;;7.20;47.77;101049.50;5011887;28;20449;-66
2023/01/10 02:00:46;;;;;;;5.38;1.92;;;;;;;7.18;47.92;101051.47;5010845;28;20042;-67
2023/01/10 02:03:15;;;;;;;3.55;1.52;;;;;;;7.19;47.93;101056.78;5010125;28;20503;-66
2023/01/10 02:05:45;;;;;;;5.97;1.80;;;;;;;7.19;47.79;101058.63;5010297;28;20479;-67
2023/01/10 02:08:14;;;;;;;5.13;1.60;;;;;;;7.19;47.95;101058.63;5011846;28;20050;-66
2023/01/10 02:10:48;;;;;;;4.95;1.60;;;;;;;7.20;48.19;101063.97;5010799;28;20049;-65
2023/01/10 02:13:20;;;;;;;6.68;1.90;;;;;;;7.19;48.12;101062.22;5009431;28;20045;-67
2023/01/10 02:15:48;;;;;;;7.05;2.30;;;;;;;7.18;48.02;101065.09;5010635;28;20486;-66
2023/01/10 02:18:16;;;;;;;5.75;1.95;;;;;;;7.18;47.98;101063.25;5011221;28;20406;-66
2023/01/10 02:21:01;;;;;;;5.95;1.80;;;;;;;7.21;47.48;101064.84;5010281;28;20057;-66
2023/01/10 02:23:59;;;;;;;4.55;1.92;;;;;;;7.17;47.58;101066.94;5011714;28;20410;-67
2023/01/10 02:26:59;;;;;;;4.97;1.50;;;;;;;7.17;47.71;101072.38;5030133;28;20076;-67
2023/01/10 02:29:47;;;;;;;4.30;1.88;;;;;;;7.16;47.45;101077.91;5029878;28;20038;-66
2023/01/10 02:32:28;;;;;;;5.55;1.70;;;;;;;7.16;47.35;101080.66;5030978;28;20045;-67
2023/01/10 02:35:28;;;;;;;5.28;2.10;;;;;;;7.15;47.44;101081.63;5029921;28;20491;-67
2023/01/10 02:38:04;;;;;;;6.45;1.92;;;;;;;7.15;47.54;101079.78;5012610;28;20041;-67
2023/01/10 02:40:44;;;;;;;6.68;2.30;;;;;;;7.13;47.52;101087.16;5029563;28;20076;-67
2023/01/10 02:43:17;;;;;;;5.68;1.90;;;;;;;7.11;47.18;101086.38;5012730;28;20494;-67
2023/01/10 02:45:50;;;;;;;6.95;2.00;;;;;;;7.10;47.50;101086.53;5029288;28;20316;-65
2023/01/10 02:48:19;;;;;;;5.57;2.35;;;;;;;7.08;47.23;101083.91;5030631;28;20080;-66
2023/01/10 02:50:53;;;;;;;5.03;1.90;;;;;;;7.09;47.16;101087.50;5029231;28;20046;-67
2023/01/10 02:53:29;;;;;;;4.05;1.50;;;;;;;7.08;47.54;101086.63;5030115;28;20041;-66
2023/01/10 02:56:33;;;;;;;5.45;1.70;;;;;;;7.04;47.09;101086.91;5029456;28;20046;-67
2023/01/10 02:59:21;;;;;;;3.65;1.40;;;;;;;7.05;47.09;101091.41;5011998;28;20046;-65
2023/01/10 03:01:56;;;;;;;7.15;1.90;;;;;;;7.02;47.23;101078.91;5029635;28;20083;-67
2023/01/10 03:04:37;;;;;;;5.47;2.00;;;;;;;7.02;47.03;101088.91;5011423;28;20128;-66
2023/01/10 03:07:13;;;;;;;4.00;1.70;;;;;;;6.99;47.28;101089.09;5029874;28;20053;-66
2023/01/10 03:09:50;;;;;;;5.57;1.95;;;;;;;6.99;46.97;101100.00;5029031;28;20088;-67
2023/01/10 03:12:23;;;;;;;5.57;1.70;;;;;;;6.96;46.87;101098.34;5030032;28;20042;-66
2023/01/10 03:14:54;;;;;;;5.32;1.73;;;;;;;6.94;46.88;101103.00;5011212;28;20120;-68
2023/01/10 03:17:24;;;;;;;5.20;2.05;;;;;;;6.93;46.76;101117.63;5029441;28;20125;-67
2023/01/10 03:19:58;;;;;;;4.13;1.88;;;;;;;6.92;46.87;101113.16;5028648;28;20041;-66
2023/01/10 03:22:30;;;;;;;3.55;1.75;;;;;;;6.90;46.89;101115.09;5029623;28;20093;-67
2023/01/10 03:25:00;;;;;;;5.47;1.95;;;;;;;6.89;46.68;101126.06;5028699;28;20522;-68
2023/01/10 03:27:38;;;;;;;5.15;1.85;;;;;;;6.88;46.80;101117.03;5011718;28;20045;-65
2023/01/10 03:30:17;;;;;;;4.10;1.60;;;;;;;6.87;46.65;101128.03;5028714;28;20053;-65
2023/01/10 03:32:45;;;;;;;5.82;1.77;;;;;;;6.85;46.52;101127.28;5029764;28;20069;-68
2023/01/10 03:35:15;;;;;;;5.40;1.95;;;;;;;6.83;46.98;101132.81;5028116;28;20049;-68
2023/01/10 03:37:54;;;;;;;5.13;2.10;;;;;;;6.83;46.67;101135.53;5029510;28;20050;-68
2023/01/10 03:40:30;;;;;;;4.93;1.73;;;;;;;6.81;46.77;101137.47;5028560;28;20132;-68
2023/01/10 03:45:58;;;;;;;4.77;1.67;;;;;;;6.76;46.69;101140.53;5011175;28;20076;-67
2023/01/10 03:48:30;;;;;;;6.72;1.75;;;;;;;6.77;46.92;101152.28;5028871;28;20284;-68
2023/01/10 03:51:06;;;;;;;5.20;1.80;;;;;;;6.78;46.77;101156.72;5027600;28;20128;-68
2023/01/10 03:53:37;;;;;;;5.57;1.58;;;;;;;6.75;47.15;101157.81;5011231;28;20053;-65
2023/01/10 03:56:06;;;;;;;4.55;1.77;;;;;;;6.74;47.13;101163.31;5028304;28;20073;-68
2023/01/10 03:58:33;;;;;;;6.65;1.70;;;;;;;6.74;46.88;101172.38;5028533;28;20045;-67
2023/01/10 04:01:01;;;;;;;4.82;1.60;;;;;;;6.72;47.23;101177.00;5028050;28;20049;-66
2023/01/10 04:03:29;;;;;;;9.10;1.95;;;;;;;6.73;47.24;101180.59;5028949;28;20565;-67
2023/01/10 04:05:58;;;;;;;4.97;1.50;;;;;;;6.72;47.09;101182.47;5042475;22;20099;-70
2023/01/10 04:08:26;;;;;;;4.65;1.85;;;;;;;6.71;47.12;101186.16;5046172;28;20131;-70
2023/01/10 04:10:54;;;;;;;4.10;1.90;;;;;;;6.70;46.98;101192.56;5028338;28;20453;-70
2023/01/10 04:13:22;;;;;;;4.63;2.10;;;;;;;6.70;47.16;101197.13;5023357;28;20084;-70
2023/01/10 04:15:50;;;;;;;5.80;2.25;;;;;;;6.69;46.75;101206.28;5006922;28;20045;-71
2023/01/10 04:18:18;;;;;;;5.70;2.40;;;;;;;6.67;46.93;101206.38;5007764;28;20041;-71
2023/01/10 04:20:46;;;;;;;5.68;2.17;;;;;;;6.65;46.79;101197.44;5026542;28;20136;-70
2023/01/10 04:23:15;;;;;;;6.35;1.92;;;;;;;6.65;47.01;101192.00;5023861;28;20042;-70
2023/01/10 04:25:46;;;;;;;6.93;2.10;;;;;;;6.66;46.66;101201.03;5027429;28;20132;-70
2023/01/10 04:28:14;;;;;;;5.30;2.30;;;;;;;6.62;46.86;101203.06;5022189;28;20491;-70
2023/01/10 04:30:42;;;;;;;4.85;1.85;;;;;;;6.61;47.09;101209.47;5018526;28;20038;-70
2023/01/10 04:33:11;;;;;;;5.15;1.90;;;;;;;6.61;46.93;101209.47;5025513;28;20701;-70
2023/01/10 04:35:39;;;;;;;6.00;1.70;;;;;;;6.61;46.71;101208.63;5024565;28;20052;-70
2023/01/10 04:38:06;;;;;;;5.47;1.95;;;;;;;6.60;47.14;101210.47;5024782;28;20073;-70
2023/01/10 04:40:36;;;;;;;4.55;2.30;;;;;;;6.60;46.68;101205.03;5040645;28;20045;-70
2023/01/10 04:43:04;;;;;;;6.88;2.50;;;;;;;6.58;46.96;101193.38;5024192;28;20050;-70
2023/01/10 04:45:31;;;;;;;7.45;2.30;;;;;;;6.58;46.75;101204.25;5017615;28;20087;-70
2023/01/10 04:47:59;;;;;;;5.50;1.85;;;;;;;6.58;47.11;101209.69;5020675;28;20502;-70
2023/01/10 04:50:27;;;;;;;7.45;1.92;;;;;;;6.57;46.67;101207.06;5024787;28;20045;-70
2023/01/10 04:52:55;;;;;;;6.07;1.90;;;;;;;6.56;46.89;101214.34;5026529;28;20469;-71
2023/01/10 04:55:23;;;;;;;7.07;2.10;;;;;;;6.57;46.84;101216.09;5024458;28;20099;-71
2023/01/10 04:57:52;;;;;;;7.82;1.92;;;;;;;6.58;46.96;101217.84;5024280;28;20505;-70
2023/01/10 05:00:20;;;;;;;4.65;1.83;;;;;;;6.57;46.88;101220.66;5021633;28;20048;-70
2023/01/10 05:02:50;;;;;;;5.57;2.05;;;;;;;6.57;47.03;101224.25;5024265;28;20100;-70
2023/01/10 05:05:18;;;;;;;7.10;1.83;;;;;;;6.58;47.00;101233.28;5026033;28;20104;-70
2023/01/10 05:07:46;;;;;;;5.68;1.75;;;;;;;6.58;46.92;101233.28;5027345;28;20049;-70
2023/01/10 05:10:15;;;;;;;6.40;2.00;;;;;;;6.59;47.27;101235.03;5022783;28;20045;-70
2023/01/10 05:12:42;;;;;;;5.13;1.65;;;;;;;6.58;46.90;101234.16;5024513;28;20045;-70
2023/01/10 05:15:12;;;;;;;5.38;1.80;;;;;;;6.60;47.04;101243.13;5020637;28;20050;-71
2023/01/10 05:17:40;;;;;;;8.15;1.90;;;;;;;6.59;47.28;101241.38;5017123;28;20041;-71
2023/01/10 05:20:09;;;;;;;4.88;1.80;;;;;;;6.61;46.95;101249.44;5024325;28;20041;-70
2023/01/10 05:22:37;;;;;;;5.22;2.17;;;;;;;6.61;47.07;101244.00;5023218;28;20053;-70
2023/01/10 05:25:05;;;;;;;6.97;1.83;;;;;;;6.63;47.27;101252.91;5023290;28;20056;-70
2023/01/10 05:27:33;;;;;;;7.22;1.95;;;;;;;6.61;47.23;101250.28;5024423;28;20049;-70
2023/01/10 05:30:01;;;;;;;7.07;1.83;;;;;;;6.63;47.18;101253.78;5027720;28;20387;-70
2023/01/10 05:32:30;;;;;;;7.75;2.28;;;;;;;6.66;47.12;101247.28;5024378;28;20398;-71
2023/01/10 05:34:58;;;;;;;6.43;1.80;;;;;;;6.65;47.17;101250.97;5019580;28;20409;-70
2023/01/10 05:37:26;;;;;;;5.22;1.63;;;;;;;6.65;46.78;101261.84;5023842;28;20057;-70
2023/01/10 05:39:54;;;;;;;5.32;1.63;;;;;;;6.65;47.00;101265.44;5039443;28;20051;-71
2023/01/10 05:42:22;;;;;;;6.65;1.90;;;;;;;6.64;47.07;101268.25;5023435;28;20038;-70
2023/01/10 05:44:50;;;;;;;7.45;1.83;;;;;;;6.64;47.00;101273.69;5022019;28;20041;-70
2023/01/10 05:47:18;;;;;;;7.20;2.13;;;;;;;6.62;46.78;101281.94;5023287;28;20052;-71
2023/01/10 05:49:47;;;;;;;6.60;1.83;;;;;;;6.64;46.59;101288.16;5022440;28;20061;-71
2023/01/10 05:52:15;;;;;;;6.50;1.70;;;;;;;6.61;46.78;101277.47;5021184;28;20053;-70
2023/01/10 05:54:44;;;;;;;6.47;1.70;;;;;;;6.61;46.80;101276.63;5022933;28;20511;-70
2023/01/10 05:57:12;;;;;;;5.57;1.70;;;;;;;6.60;46.76;101266.72;5020838;28;20073;-70
2023/01/10 05:59:39;;;;;;;5.45;1.55;;;;;;;6.59;47.17;101265.84;5019896;28;20054;-70
2023/01/10 06:02:07;;;;;;;5.53;1.67;;;;;;;6.58;46.89;101277.69;5037500;28;20041;-71
2023/01/10 06:04:35;;;;;;;5.47;1.83;;;;;;;6.58;46.68;101282.25;5002261;28;1091456;-70
2023/01/10 06:07:05;;;;;;;5.80;1.92;;;;;;;6.59;46.77;101297.59;5028364;28;20060;-70
2023/01/10 06:09:33;;;;;;;7.57;1.70;;;;;;;6.56;46.71;101306.81;5028089;28;20115;-70
2023/01/10 06:12:00;;;;;;;4.28;1.75;;;;;;;6.55;46.81;101305.06;5027909;28;20041;-70
2023/01/10 06:14:28;;;;;;;7.30;2.00;;;;;;;6.54;46.83;101316.91;5024872;28;20095;-70
2023/01/10 06:16:57;;;;;;;7.85;1.98;;;;;;;6.54;46.94;101314.19;5029154;28;20553;-70
2023/01/10 06:19:25;;;;;;;5.20;1.88;;;;;;;6.53;47.04;101314.31;5027838;28;20452;-70
2023/01/10 06:21:52;;;;;;;6.22;1.95;;;;;;;6.52;47.18;101329.75;5034859;28;20048;-70
2023/01/10 06:24:22;;;;;;;6.97;1.80;;;;;;;6.53;47.01;101333.34;5027335;28;20406;-70
2023/01/10 06:26:49;;;;;;;6.13;1.77;;;;;;;6.51;47.11;101311.69;5025466;28;20276;-70
2023/01/10 06:29:17;;;;;;;8.25;1.83;;;;;;;6.51;47.08;101310.81;5012775;28;20049;-70
2023/01/10 06:31:45;;;;;;;6.18;2.03;;;;;;;6.50;46.88;101334.41;5033912;28;20410;-71
2023/01/10 06:34:13;;;;;;;9.10;2.30;;;;;;;6.50;47.11;101345.28;5026473;28;20510;-70
2023/01/10 06:36:41;;;;;;;4.38;1.90;;;;;;;6.50;47.11;101349.84;5027637;28;20091;-70
2023/01/10 06:39:09;;;;;;;8.65;2.22;;;;;;;6.50;46.88;101355.28;5028129;28;20079;-70
2023/01/10 06:41:38;;;;;;;6.90;2.20;;;;;;;6.51;46.98;101359.75;5028094;28;20045;-70
2023/01/10 06:44:06;;;;;;;5.90;2.05;;;;;;;6.49;46.92;101358.97;5024082;28;20616;-70
2023/01/10 06:46:34;;;;;;;7.80;2.05;;;;;;;6.48;47.13;101357.22;5040853;28;20405;-70
2023/01/10 06:49:02;;;;;;;8.30;2.30;;;;;;;6.49;47.06;101354.41;5025653;28;20073;-70
2023/01/10 06:51:30;;;;;;;5.50;2.00;;;;;;;6.49;46.96;101364.41;5027563;28;20044;-70
2023/01/10 06:53:58;;;;;;;8.07;2.22;;;;;;;6.49;47.21;101372.56;5017888;28;20140;-70
2023/01/10 06:56:27;;;;;;;7.22;2.30;;;;;;;6.49;47.25;101384.31;5023748;28;20897;-70
2023/01/10 06:58:57;;;;;;;5.47;1.83;;;;;;;6.51;47.05;101379.66;5028407;28;20092;-71
2023/01/10 07:01:25;;;;;;;6.75;1.77;;;;;;;6.51;47.25;101385.09;5024141;28;20076;-71
2023/01/10 07:03:53;;;;;;;8.90;2.40;;;;;;;6.50;47.22;101383.34;5029999;28;20084;-71
2023/01/10 07:06:21;;;;;;;6.63;1.85;;;;;;;6.51;47.44;101395.97;5034970;28;20554;-70
2023/01/10 07:08:49;;;;;;;12.93;2.58;;;;;;;6.52;47.08;101396.84;5028425;28;20132;-72
2023/01/10 07:11:17;;;;;;;5.65;1.98;;;;;;;6.52;47.21;101395.00;5027208;28;20053;-71
2023/01/10 07:13:44;;;;;;;7.53;2.30;;;;;;;6.54;46.99;101403.06;5027085;28;20042;-71
2023/01/10 07:16:16;;;;;;;6.25;2.05;;;;;;;6.54;47.15;101393.06;5067110;28;20135;-70
2023/01/10 07:18:43;;;;;;;7.97;2.45;;;;;;;6.53;47.33;101398.59;5048649;28;20064;-70
2023/01/10 07:21:12;;;;;;;13.38;2.75;;;;;;;6.53;47.06;101410.34;5059084;28;20059;-70
2023/01/10 07:23:40;;;;;;;10.13;2.10;;;;;;;6.54;47.10;101419.38;5035154;28;20128;-70
2023/01/10 07:26:10;;;;;;;8.05;2.30;;;;;;;6.54;47.42;101417.53;5031725;28;20133;-69
2023/01/10 07:28:38;;;;;;;7.20;2.10;;;;;;;6.54;47.20;101422.09;5043056;28;20087;-69
2023/01/10 07:31:06;;;;;;;7.47;1.85;;;;;;;6.54;47.44;101428.41;5048593;28;20053;-71
2023/01/10 07:33:35;;;;;;;7.53;1.80;;;;;;;6.55;47.25;101432.88;5046291;28;20037;-69
2023/01/10 07:36:03;;;;;;;6.45;2.25;;;;;;;6.54;47.53;101435.69;5026127;28;20506;-69
2023/01/10 07:38:31;;;;;;;7.85;2.00;;;;;;;6.55;47.65;101429.28;5045367;28;20043;-71
2023/01/10 07:41:02;;;;;;;8.43;2.22;;;;;;;6.57;47.30;101438.22;5042415;28;20545;-70
2023/01/10 07:43:30;;;;;;;7.13;2.03;;;;;;;6.55;47.30;101438.31;5045317;28;20123;-70
2023/01/10 07:45:58;;;;;;;7.53;2.05;;;;;;;6.56;47.28;101440.06;5044468;28;20056;-70
2023/01/10 07:48:27;;;;;;;7.13;2.00;;;;;;;6.55;47.28;101446.47;5043871;28;20401;-70
2023/01/10 07:50:57;;;;;;;9.43;2.83;;;;;;;6.57;47.33;101458.13;5046784;28;20052;-70
2023/01/10 07:53:25;;;;;;;7.80;1.95;;;;;;;6.56;47.36;101450.06;5026797;28;20048;-70
2023/01/10 07:55:54;;;;;;;6.53;2.17;;;;;;;6.56;47.18;101459.09;5046172;28;20045;-70
2023/01/10 07:58:22;;;;;;;9.05;2.03;;;;;;;6.56;47.40;101461.81;5044827;28;20049;-71
2023/01/10 08:00:50;;;;;;;8.82;2.47;;;;;;;6.57;47.48;101458.13;5045880;28;20056;-70
2023/01/10 08:03:18;;;;;;;8.90;1.98;;;;;;;6.57;47.39;101465.41;5047702;28;20559;-70
2023/01/10 08:05:46;;;;;;;7.63;2.10;;;;;;;6.56;47.25;101469.97;5046010;28;20044;-70
2023/01/10 08:08:16;;;;;;;7.28;1.73;;;;;;;6.57;47.48;101474.47;5045163;28;20072;-71
2023/01/10 08:10:44;;;;;;;8.30;2.33;;;;;;;6.56;47.19;101486.31;5046681;28;20041;-71
2023/01/10 08:13:11;;;;;;;8.15;2.92;;;;;;;6.56;47.36;101488.13;5043537;28;20528;-70
2023/01/10 08:15:49;;;;;;;8.48;2.70;;;;;;;6.55;47.15;101492.69;5044459;28;20564;-71
2023/01/10 08:18:17;;;;;;;10.73;2.20;;;;;;;6.55;47.50;101489.97;5045096;28;20041;-73
2023/01/10 08:20:46;;;;;;;8.02;2.30;;;;;;;6.56;47.43;101493.59;5045721;28;20037;-72
2023/01/10 08:23:16;;;;;;;8.10;2.40;;;;;;;6.56;47.55;101499.03;5048160;28;20123;-73
2023/01/10 08:25:44;;;;;;;7.38;2.03;;;;;;;6.56;47.29;101504.47;5059830;28;20635;-72
2023/01/10 08:28:13;;;;;;;6.00;2.50;;;;;;;6.56;47.55;101501.75;5046728;28;20074;-72
2023/01/10 08:30:40;;;;;;;6.82;2.20;;;;;;;6.55;47.26;101495.41;5046849;28;20045;-72
2023/01/10 08:33:10;;;;;;;9.55;2.50;;;;;;;6.56;47.41;101505.34;5046690;28;20120;-73
2023/01/10 08:35:39;;;;;;;9.27;2.60;;;;;;;6.55;47.52;101503.59;5046626;28;20052;-73
2023/01/10 08:38:07;;;;;;;8.85;2.17;;;;;;;6.57;47.55;101500.78;5046260;28;20352;-72
2023/01/10 08:40:37;;;;;;;9.63;2.58;;;;;;;6.58;47.39;101507.97;5028066;28;20457;-73
2023/01/10 08:43:06;;;;;;;8.77;2.30;;;;;;;6.57;47.39;101514.38;5045842;28;20048;-73
2023/01/10 08:45:34;;;;;;;9.45;2.30;;;;;;;6.56;47.36;101507.19;5027552;28;20037;-72
2023/01/10 08:48:03;;;;;;;10.68;2.08;;;;;;;6.57;47.60;101509.81;5053013;28;20044;-72
2023/01/10 08:50:32;;;;;;;7.43;2.20;;;;;;;6.57;47.58;101509.81;5043207;28;20049;-72
2023/01/10 08:53:00;;;;;;;7.40;2.13;;;;;;;6.57;47.51;101512.53;5025988;28;20052;-72
2023/01/10 08:55:30;;;;;;;8.60;2.63;;;;;;;6.58;47.43;101517.00;5039958;28;20043;-72
2023/01/10 08:58:01;;;;;;;8.20;2.13;;;;;;;6.60;47.61;101512.34;5044814;28;20489;-72
2023/01/10 09:00:29;;;;;;;6.88;2.47;;;;;;;6.61;47.53;101519.53;5046573;28;20049;-72
2023/01/10 09:02:57;;;;;;;6.22;2.10;;;;;;;6.64;47.80;101522.06;5046391;28;20041;-72
2023/01/10 09:05:26;;;;;;;11.88;2.50;;;;;;;6.68;47.69;101520.94;5045300;28;20055;-72
2023/01/10 09:07:59;;;;;;;7.50;1.90;;;;;;;6.72;47.71;101522.47;5034036;28;20044;-72
2023/01/10 09:10:27;;;;;;;9.20;2.50;;;;;;;6.73;47.58;101517.91;5041293;28;20073;-72
2023/01/10 09:12:55;;;;;;;6.00;2.30;;;;;;;6.79;47.90;101515.72;5044556;28;20088;-73
2023/01/10 09:15:26;;;;;;;9.95;2.35;;;;;;;6.84;47.88;101512.72;5044462;28;20048;-72
2023/01/10 09:17:55;;;;;;;6.75;2.17;;;;;;;6.88;47.78;101519.72;5046338;28;20048;-72
2023/01/10 09:20:25;;;;;;;9.75;2.22;;;;;;;6.93;47.63;101514.00;5031088;28;20104;-73
2023/01/10 09:22:53;;;;;;;6.57;2.13;;;;;;;6.97;47.56;101524.59;5042941;28;20115;-72
2023/01/10 09:25:21;;;;;;;8.60;2.40;;;;;;;7.01;47.62;101519.84;5041953;28;20517;-73
2023/01/10 09:27:56;;;;;;;8.60;2.13;;;;;;;7.09;47.08;101515.69;5064785;28;20478;-73
2023/01/10 09:30:26;;;;;;;7.68;1.85;;;;;;;7.13;47.47;101517.22;5039873;28;20472;-73
2023/01/10 09:32:56;;;;;;;10.02;2.33;;;;;;;7.17;47.38;101524.25;5046512;28;20461;-72
2023/01/10 09:35:25;;;;;;;7.05;2.35;;;;;;;7.24;47.54;101512.97;5058961;28;20118;-73
2023/01/10 09:37:54;;;;;;;7.18;2.00;;;;;;;7.31;47.65;101514.31;5053453;28;20049;-73
2023/01/10 09:40:31;;;;;;;7.32;2.20;;;;;;;7.39;47.03;101514.69;5031672;28;20076;-73
2023/01/10 09:43:10;;;;;;;8.25;2.35;;;;;;;7.45;46.92;101511.56;5048820;28;20098;-73
2023/01/10 09:45:48;;;;;;;8.65;2.38;;;;;;;7.52;46.94;101513.81;5027670;28;20124;-73
2023/01/10 09:48:26;;;;;;;11.13;2.72;;;;;;;7.57;46.76;101522.56;5030465;28;20387;-73
2023/01/10 09:51:10;;;;;;;10.10;2.65;;;;;;;7.64;46.51;101522.16;5049135;28;20513;-73
2023/01/10 09:53:42;;;;;;;7.72;2.03;;;;;;;7.68;47.07;101516.44;5026007;28;20138;-73
2023/01/10 09:56:13;;;;;;;6.43;2.10;;;;;;;7.74;46.92;101523.31;5047398;28;20124;-73
2023/01/10 09:58:43;;;;;;;6.80;2.88;;;;;;;7.79;46.79;101521.16;5043141;28;20608;-71
2023/01/10 10:01:16;;;;;;;7.30;2.22;;;;;;;7.83;46.63;101520.88;5045895;28;20049;-71
2023/01/10 10:03:51;;;;;;;8.25;2.47;;;;;;;7.89;46.53;101525.03;5049846;28;20427;-71
2023/01/10 10:06:21;;;;;;;10.63;2.53;;;;;;;7.91;47.09;101525.81;5071134;22;20052;-69
2023/01/10 10:08:52;;;;;;;7.25;2.40;;;;;;;7.98;47.04;101529.00;5062098;28;20054;-69
2023/01/10 10:11:37;;;;;;;9.65;2.33;;;;;;;8.04;45.93;101536.78;5044718;28;20062;-67
2023/01/10 10:14:16;;;;;;;7.10;1.95;;;;;;;8.09;45.86;101534.63;5055552;28;20122;-68
2023/01/10 10:16:57;;;;;;;7.78;2.05;;;;;;;8.13;45.88;101528.91;5078658;28;20518;-68
2023/01/10 10:19:36;;;;;;;8.02;2.50;;;;;;;8.17;45.86;101522.28;5070601;28;20041;-69
2023/01/10 10:22:11;;;;;;;8.43;2.10;;;;;;;8.20;45.58;101526.63;5057490;28;20048;-68
2023/01/10 10:24:52;;;;;;;9.10;2.65;;;;;;;8.23;45.58;101512.81;5057279;28;20443;-67
2023/01/10 10:27:23;;;;;;;6.50;2.00;;;;;;;8.24;46.04;101515.44;5068067;28;20048;-65
2023/01/10 10:30:16;;;;;;;7.95;2.00;;;;;;;8.25;45.34;101519.91;5056826;28;20044;-69
2023/01/10 10:33:09;;;;;;;5.77;2.17;;;;;;;8.28;45.74;101516.09;5048219;28;20041;-70
2023/01/10 10:35:40;;;;;;;8.82;2.05;;;;;;;8.26;45.80;101510.72;5054721;28;20041;-71
2023/01/10 10:38:14;;;;;;;8.07;1.63;;;;;;;8.31;45.55;101516.75;5063537;28;20048;-71
2023/01/10 10:40:44;;;;;;;7.93;2.38;;;;;;;8.31;46.04;101508.59;5053963;28;20041;-70
2023/01/10 10:43:20;;;;;;;6.28;2.50;;;;;;;8.34;45.69;101513.81;5052384;28;20207;-71
2023/01/10 10:45:52;;;;;;;6.57;2.05;;;;;;;8.34;45.56;101516.53;5055728;28;20516;-71
2023/01/10 10:48:25;;;;;;;9.43;2.03;;;;;;;8.36;45.55;101502.78;5061952;28;20063;-70
2023/01/10 10:51:04;;;;;;;7.15;2.17;;;;;;;8.40;44.94;101498.91;5060311;28;20489;-70
2023/01/10 10:53:33;;;;;;;7.25;1.80;;;;;;;8.39;45.75;101497.16;5059693;28;20048;-70
2023/01/10 10:56:02;;;;;;;6.38;1.77;;;;;;;8.42;46.16;101488.75;5062846;28;20055;-70
2023/01/10 10:58:31;;;;;;;8.98;2.33;;;;;;;8.44;45.79;101488.63;5057952;28;20051;-69
2023/01/10 11:00:59;;;;;;;7.72;2.13;;;;;;;8.45;46.00;101485.81;5064027;28;20036;-70
2023/01/10 11:03:39;;;;;;;7.38;1.98;;;;;;;8.50;45.11;101478.19;5064579;28;20043;-70
2023/01/10 11:06:09;;;;;;;7.25;2.60;;;;;;;8.49;45.61;101476.44;5061563;28;20094;-69
2023/01/10 11:08:41;;;;;;;6.05;1.90;;;;;;;8.51;45.52;101474.47;5063545;28;20041;-70
2023/01/10 11:11:17;;;;;;;7.78;2.00;;;;;;;8.54;44.79;101476.13;5070328;28;20186;-69
2023/01/10 11:13:48;;;;;;;6.28;2.10;;;;;;;8.53;45.59;101471.63;5054486;28;20045;-70
2023/01/10 11:16:28;;;;;;;8.90;2.10;;;;;;;8.55;44.94;101456.03;5063015;28;20086;-70
2023/01/10 11:19:21;;;;;;;7.43;1.75;;;;;;;8.54;44.53;101457.03;5062845;28;20040;-70
2023/01/10 11:21:57;;;;;;;7.55;1.90;;;;;;;8.53;44.74;101461.59;5061494;28;20047;-70
2023/01/10 11:24:29;;;;;;;6.35;1.80;;;;;;;8.54;45.16;101455.16;5066150;28;20050;-73
2023/01/10 11:26:59;;;;;;;7.73;1.90;;;;;;;8.54;45.43;101454.28;5065735;28;20429;-71
2023/01/10 11:29:36;;;;;;;4.82;1.75;;;;;;;8.55;45.10;101456.91;5062044;28;20056;-68
2023/01/10 11:32:13;;;;;;;6.32;1.80;;;;;;;8.56;44.70;101455.94;5060196;28;20113;-66
2023/01/10 11:34:52;;;;;;;6.25;2.05;;;;;;;8.57;44.50;101445.91;5061186;28;20564;-69
2023/01/10 11:37:27;;;;;;;9.05;1.80;;;;;;;8.56;44.81;101449.59;5063851;28;20123;-69
2023/01/10 11:40:16;;;;;;;7.95;1.98;;;;;;;8.56;43.91;101458.66;5057956;28;20131;-69
2023/01/10 11:42:44;;;;;;;8.52;2.30;;;;;;;8.54;45.04;101446.97;5061446;28;20466;-70
2023/01/10 11:45:26;;;;;;;9.30;1.85;;;;;;;8.58;44.23;101461.28;5059998;28;20052;-70
2023/01/10 11:47:56;;;;;;;8.43;2.17;;;;;;;8.56;44.72;101455.06;5060047;28;20045;-70
2023/01/10 11:50:28;;;;;;;6.80;2.65;;;;;;;8.56;44.63;101444.16;5062983;28;20043;-71
2023/01/10 11:52:57;;;;;;;6.82;2.22;;;;;;;8.56;45.00;101445.03;5062987;28;20044;-69
2023/01/10 11:55:27;;;;;;;9.10;2.20;;;;;;;8.57;44.76;101443.19;5063802;28;20041;-69
2023/01/10 11:57:59;;;;;;;6.57;1.60;;;;;;;8.56;44.79;101436.84;5060767;28;20094;-69
2023/01/10 12:00:33;;;;;;;7.47;2.50;;;;;;;8.58;44.35;101429.44;5060354;28;20147;-68